Time;durP1;ratioP1;P1;durP2;ratioP2;P2;SDS_P1;SDS_P2;PMS_P1;PMS_P2;Temp;Humidity;BMP_temperature;BMP_pressure;BME280_temperature;BME280_humidity;BME280_pressure;Samples;Min_cycle;Max_cycle;Signal;HPM_P1;HPM_P2
2023/01/08 00:04:41;;;;;;;46.83;25.57;;;;;;;5.28;100.00;100452.45;5062882;57;1143249;-69
2023/01/08 00:09:49;;;;;;;51.45;26.25;;;;;;;5.14;100.00;100445.84;5042986;57;1140888;-72
2023/01/08 00:14:54;;;;;;;51.50;27.90;;;;;;;5.09;100.00;100445.23;5042599;57;1143113;-74
2023/01/08 00:20:00;;;;;;;54.30;27.57;;;;;;;5.04;100.00;100446.80;5062320;57;1142959;-69
2023/01/08 00:25:07;;;;;;;59.03;31.48;;;;;;;5.01;100.00;100439.13;5042299;56;1142920;-73
2023/01/08 00:30:14;;;;;;;62.67;30.70;;;;;;;4.97;100.00;100449.40;5054135;56;1140786;-70
2023/01/08 00:35:20;;;;;;;57.95;29.48;;;;;;;4.90;100.00;100447.57;5061515;56;1140916;-68
2023/01/08 00:40:25;;;;;;;56.07;30.17;;;;;;;4.83;100.00;100447.55;5061803;57;1143042;-71
2023/01/08 00:45:31;;;;;;;57.20;29.70;;;;;;;4.78;100.00;100435.62;5021884;57;1143108;-68
2023/01/08 00:50:37;;;;;;;58.97;31.87;;;;;;;4.72;100.00;100428.95;5042688;57;1142902;-65
2023/01/08 00:55:43;;;;;;;58.90;30.80;;;;;;;4.64;100.00;100420.66;5062421;57;1150449;-70
2023/01/08 01:00:49;;;;;;;55.80;30.40;;;;;;;4.58;100.00;100416.59;5126959;56;1143000;-71
2023/01/08 01:06:05;;;;;;;59.47;31.00;;;;;;;4.53;100.00;100413.86;5126968;56;1142897;-70
2023/01/08 01:11:24;;;;;;;54.83;29.07;;;;;;;4.49;100.00;100414.94;5127361;56;1142996;-70
2023/01/08 01:16:29;;;;;;;60.23;32.47;;;;;;;4.42;100.00;100393.50;5147011;56;1142840;-70
2023/01/08 01:21:35;;;;;;;59.73;30.40;;;;;;;4.39;100.00;100400.67;5127254;56;1141024;-69
2023/01/08 01:26:42;;;;;;;59.97;29.87;;;;;;;4.37;100.00;100403.83;5127010;55;1143078;-71
2023/01/08 01:31:47;;;;;;;61.48;31.40;;;;;;;4.36;100.00;100410.83;5141699;56;1142836;-70
2023/01/08 01:36:54;;;;;;;61.47;32.13;;;;;;;4.36;100.00;100414.77;5042314;57;1142892;-71
2023/01/08 01:41:59;;;;;;;57.70;30.63;;;;;;;4.33;100.00;100402.30;5042894;57;1140945;-75
2023/01/08 01:47:24;;;;;;;60.13;30.63;;;;;;;4.28;100.00;100403.84;5062333;57;1141231;-72
2023/01/08 01:52:34;;;;;;;58.60;30.37;;;;;;;4.24;100.00;100400.56;5047779;56;1142809;-70
2023/01/08 01:57:45;;;;;;;52.15;28.07;;;;;;;4.20;100.00;100386.41;5031158;56;1142968;-70
2023/01/08 02:02:51;;;;;;;56.33;29.90;;;;;;;4.16;100.00;100383.09;5064821;56;1142831;-73
2023/01/08 02:08:04;;;;;;;59.47;31.20;;;;;;;4.08;100.00;100364.36;5045955;56;1140833;-66
2023/01/08 02:13:26;;;;;;;63.02;31.77;;;;;;;4.01;100.00;100371.29;5045880;56;1140853;-66
2023/01/08 02:18:52;;;;;;;51.10;26.73;;;;;;;3.99;100.00;100376.59;5059416;56;1140872;-73
2023/01/08 02:24:11;;;;;;;52.60;27.23;;;;;;;4.00;100.00;100373.52;5055735;56;1143019;-66
2023/01/08 02:29:21;;;;;;;54.23;28.10;;;;;;;4.01;100.00;100377.83;5045503;56;1142903;-73
2023/01/08 02:34:27;;;;;;;54.73;29.48;;;;;;;3.97;100.00;100365.86;5044519;56;1140764;-69
2023/01/08 02:40:09;;;;;;;51.43;28.30;;;;;;;3.90;100.00;100356.16;5065471;57;1141155;-69
2023/01/08 02:45:37;;;;;;;49.10;25.10;;;;;;;3.85;100.00;100351.16;5044761;57;1142874;-67
2023/01/08 02:50:53;;;;;;;47.10;26.42;;;;;;;3.86;100.00;100328.00;4880419;57;1143122;-71
2023/01/08 02:56:18;;;;;;;48.70;28.03;;;;;;;3.87;100.00;100331.00;4890285;57;1140836;-65
2023/01/08 03:01:26;;;;;;;44.30;25.80;;;;;;;3.89;100.00;100327.84;4880556;57;1140967;-69
2023/01/08 03:06:33;;;;;;;52.20;28.60;;;;;;;3.93;100.00;100328.54;4879099;58;1209010;-68
2023/01/08 03:11:51;;;;;;;47.60;24.27;;;;;;;3.99;100.00;100328.19;4899559;58;1143020;-70
2023/01/08 03:17:07;;;;;;;46.30;26.00;;;;;;;4.03;100.00;100327.11;4878731;58;1142926;-68
2023/01/08 03:22:16;;;;;;;45.50;24.67;;;;;;;4.00;100.00;100322.50;4880415;58;1140994;-69
2023/01/08 03:27:26;;;;;;;43.70;22.67;;;;;;;3.96;100.00;100318.37;4981978;57;1141066;-69
2023/01/08 03:32:34;;;;;;;44.70;23.83;;;;;;;3.87;100.00;100307.46;5047087;57;1140871;-73
2023/01/08 03:37:44;;;;;;;41.30;22.00;;;;;;;3.83;100.00;100290.23;4964098;57;1143015;-67
2023/01/08 03:42:50;;;;;;;43.47;24.20;;;;;;;3.85;100.00;100286.23;4964146;57;1143038;-71
2023/01/08 03:47:57;;;;;;;45.90;23.77;;;;;;;3.83;100.00;100289.38;5038076;56;1140994;-70
2023/01/08 03:53:03;;;;;;;37.97;22.27;;;;;;;3.80;100.00;100280.42;5045621;56;1140913;-69
2023/01/08 03:58:09;;;;;;;39.93;21.60;;;;;;;3.75;100.00;100273.27;5045291;56;1140835;-67
2023/01/08 04:03:15;;;;;;;42.60;23.47;;;;;;;3.74;100.00;100250.66;5044890;57;1143140;-68
2023/01/08 04:08:21;;;;;;;42.70;23.57;;;;;;;3.75;100.00;100251.88;5064637;57;1142866;-71
2023/01/08 04:13:27;;;;;;;43.93;24.47;;;;;;;3.71;100.00;100254.73;5044967;57;1141074;-68
2023/01/08 04:18:32;;;;;;;37.53;21.10;;;;;;;3.71;100.00;100256.05;5044801;56;1140906;-73
2023/01/08 04:23:38;;;;;;;40.90;21.40;;;;;;;3.74;100.00;100255.42;5065142;57;1140824;-68
2023/01/08 04:28:44;;;;;;;36.87;22.50;;;;;;;3.80;100.00;100242.03;5044263;57;1142948;-70
2023/01/08 04:33:50;;;;;;;47.62;25.25;;;;;;;3.85;100.00;100244.37;5005350;57;1142918;-72
2023/01/08 04:38:56;;;;;;;45.30;26.13;;;;;;;3.83;100.00;100247.53;4981530;57;1140937;-69
2023/01/08 04:44:02;;;;;;;44.90;24.90;;;;;;;3.82;100.00;100248.45;5015269;57;1140929;-69
2023/01/08 04:49:08;;;;;;;42.57;22.90;;;;;;;3.77;100.00;100233.03;5044756;56;1140974;-68
2023/01/08 04:54:13;;;;;;;45.65;22.77;;;;;;;3.72;100.00;100223.73;5044882;56;1141018;-70
2023/01/08 04:59:19;;;;;;;42.23;24.13;;;;;;;3.68;100.00;100219.13;5064361;57;1143004;-69
2023/01/08 05:04:25;;;;;;;46.20;24.23;;;;;;;3.66;100.00;100214.47;5109989;56;1142956;-69
2023/01/08 05:09:32;;;;;;;44.10;22.90;;;;;;;3.64;100.00;100206.32;5121390;56;1140861;-76
2023/01/08 05:14:38;;;;;;;41.90;22.93;;;;;;;3.57;100.00;100201.88;5141525;56;1141080;-67
2023/01/08 05:19:44;;;;;;;37.32;21.78;;;;;;;3.61;100.00;100198.63;5121474;56;1140952;-73
2023/01/08 05:24:49;;;;;;;45.70;24.20;;;;;;;3.62;100.00;100208.17;5121347;56;1143055;-67
2023/01/08 05:29:55;;;;;;;48.33;27.33;;;;;;;3.68;100.00;100209.97;5135796;56;1142909;-67
2023/01/08 05:35:01;;;;;;;46.70;25.70;;;;;;;3.70;100.00;100207.28;4986450;57;1140898;-72
2023/01/08 05:40:08;;;;;;;45.57;24.57;;;;;;;3.68;100.00;100216.97;5059192;56;1140932;-69
2023/01/08 05:45:15;;;;;;;47.53;26.17;;;;;;;3.68;100.00;100216.97;5121794;56;1141044;-74
2023/01/08 05:50:21;;;;;;;40.93;22.53;;;;;;;3.64;100.00;100217.63;5141660;56;1141010;-68
2023/01/08 05:55:26;;;;;;;49.23;25.77;;;;;;;3.59;100.00;100205.72;5121174;56;1143126;-66
2023/01/08 06:00:35;;;;;;;49.93;26.83;;;;;;;3.51;100.00;100211.38;5088712;56;1140809;-73
2023/01/08 06:05:40;;;;;;;46.93;25.03;;;;;;;3.40;100.00;100204.08;5146013;56;1141012;-73
2023/01/08 06:10:47;;;;;;;42.27;22.97;;;;;;;3.41;100.00;100207.53;5101712;56;1140984;-66
2023/01/08 06:15:53;;;;;;;43.33;23.47;;;;;;;3.41;100.00;100190.55;5110720;56;1142918;-74
2023/01/08 06:20:59;;;;;;;54.13;29.10;;;;;;;3.41;100.00;100186.16;5062051;57;1142880;-73
2023/01/08 06:26:04;;;;;;;51.97;27.30;;;;;;;3.40;100.00;100192.31;5042946;57;1140884;-68
2023/01/08 06:31:10;;;;;;;45.43;25.67;;;;;;;3.35;100.00;100189.13;5069896;56;1140823;-72
2023/01/08 06:36:17;;;;;;;49.35;26.90;;;;;;;3.32;100.00;100189.28;5045924;56;1140875;-70
2023/01/08 06:41:23;;;;;;;54.77;27.87;;;;;;;3.28;100.00;100175.14;5104566;56;1140737;-70
2023/01/08 06:46:29;;;;;;;45.40;23.53;;;;;;;3.25;100.00;100173.98;5101130;56;1142858;-71
2023/01/08 06:51:35;;;;;;;50.10;27.30;;;;;;;3.24;100.00;100182.29;5098442;56;1142912;-68
2023/01/08 06:56:41;;;;;;;48.13;26.17;;;;;;;3.25;100.00;100174.83;5140166;56;1141156;-67
2023/01/08 07:01:47;;;;;;;48.85;25.68;;;;;;;3.22;100.00;100170.22;5109711;56;1140936;-73
2023/01/08 07:06:53;;;;;;;51.85;26.27;;;;;;;3.15;100.00;100156.66;5022620;56;1141002;-70
2023/01/08 07:11:59;;;;;;;46.83;23.73;;;;;;;3.14;100.00;100156.27;5009140;57;1140873;-67
2023/01/08 07:17:05;;;;;;;44.13;23.67;;;;;;;3.18;100.00;100173.02;4962999;57;1142901;-69
2023/01/08 07:22:11;;;;;;;48.27;25.33;;;;;;;3.25;100.00;100153.92;4963052;57;1142773;-68
2023/01/08 07:27:17;;;;;;;44.80;26.42;;;;;;;3.25;100.00;100140.86;4969569;57;1141070;-66
2023/01/08 07:32:23;;;;;;;51.33;26.33;;;;;;;3.16;100.00;100134.37;5004890;56;1141039;-68
2023/01/08 07:37:29;;;;;;;43.13;25.00;;;;;;;3.12;100.00;100134.14;5030456;57;1141049;-69
2023/01/08 07:42:35;;;;;;;47.20;26.67;;;;;;;3.08;100.00;100131.30;5027339;57;1143191;-69
2023/01/08 07:47:40;;;;;;;53.40;27.80;;;;;;;3.10;100.00;100139.91;5064654;57;1143104;-75
2023/01/08 07:52:47;;;;;;;45.15;25.37;;;;;;;3.13;100.00;100120.61;5044989;57;1140947;-72
2023/01/08 07:57:53;;;;;;;47.00;25.85;;;;;;;3.13;100.00;100120.16;5045039;57;1140768;-70
2023/01/08 08:03:04;;;;;;;46.40;24.63;;;;;;;3.17;100.00;100127.38;5063796;57;1140945;-71
2023/01/08 08:08:11;;;;;;;48.80;27.77;;;;;;;3.20;100.00;100121.14;5047799;56;1143062;-67
2023/01/08 08:13:17;;;;;;;53.37;28.27;;;;;;;3.22;100.00;100129.72;5124233;56;1140894;-71
2023/01/08 08:18:24;;;;;;;49.75;27.60;;;;;;;3.27;100.00;100125.09;5127334;56;1140942;-71
2023/01/08 08:23:31;;;;;;;49.00;25.87;;;;;;;3.35;100.00;100129.00;5147611;56;1140769;-70
2023/01/08 08:28:37;;;;;;;63.07;39.13;;;;;;;3.44;100.00;100119.34;5079792;56;1142902;-76
2023/01/08 08:33:43;;;;;;;55.90;27.23;;;;;;;3.61;100.00;100124.11;5086605;56;1143035;-74
2023/01/08 08:38:48;;;;;;;52.23;26.93;;;;;;;3.73;100.00;100126.88;5147501;56;1140953;-70
2023/01/08 08:43:54;;;;;;;45.83;27.13;;;;;;;3.80;100.00;100109.09;5065967;56;1141005;-69
2023/01/08 08:48:59;;;;;;;50.03;27.33;;;;;;;3.81;100.00;100106.39;5042460;56;1140901;-69
2023/01/08 08:54:05;;;;;;;72.80;54.40;;;;;;;3.86;100.00;100109.57;5086274;56;1142897;-65
2023/01/08 08:59:12;;;;;;;46.30;26.70;;;;;;;3.97;100.00;100110.76;5042570;57;1142902;-72
2023/01/08 09:04:17;;;;;;;46.43;27.53;;;;;;;4.03;100.00;100112.54;5103685;56;1140814;-69
2023/01/08 09:09:24;;;;;;;46.30;27.33;;;;;;;4.07;100.00;100105.36;5045263;56;1141095;-70
2023/01/08 09:14:30;;;;;;;48.27;25.43;;;;;;;4.12;100.00;100096.80;5103629;56;1140931;-74
2023/01/08 09:19:36;;;;;;;46.70;24.63;;;;;;;4.23;100.00;100097.01;5044838;57;1143031;-70
2023/01/08 09:24:41;;;;;;;39.47;25.07;;;;;;;4.31;100.00;100095.23;5075600;56;1142851;-69
2023/01/08 09:29:47;;;;;;;50.38;28.05;;;;;;;4.35;100.00;100087.13;5073035;55;1142893;-74
2023/01/08 09:34:53;;;;;;;44.35;25.97;;;;;;;4.46;100.00;100100.88;5071433;56;1140836;-72
2023/01/08 09:39:58;;;;;;;40.80;24.73;;;;;;;4.45;100.00;100083.02;5045115;57;1140918;-70
2023/01/08 09:45:05;;;;;;;38.77;24.03;;;;;;;4.48;100.00;100084.62;5064797;57;1140878;-68
2023/01/08 09:50:14;;;;;;;43.08;23.65;;;;;;;4.55;100.00;100080.72;5044602;57;1143082;-72
2023/01/08 09:55:21;;;;;;;37.57;23.87;;;;;;;4.65;100.00;100075.75;5044843;57;1143165;-70
2023/01/08 10:00:30;;;;;;;44.23;24.00;;;;;;;4.79;100.00;100064.81;5045385;57;1142873;-66
2023/01/08 10:05:36;;;;;;;37.77;23.60;;;;;;;4.88;100.00;100060.34;5064942;57;1142876;-69
2023/01/08 10:10:44;;;;;;;40.92;24.37;;;;;;;4.93;100.00;100060.03;5042584;56;1140783;-69
2023/01/08 10:15:51;;;;;;;36.30;21.10;;;;;;;5.04;100.00;100056.77;5021077;56;1142945;-69
2023/01/08 10:20:58;;;;;;;33.27;21.60;;;;;;;5.13;100.00;100055.72;5050345;57;1142970;-73
2023/01/08 10:26:04;;;;;;;41.23;22.47;;;;;;;5.23;100.00;100053.35;5045170;57;1143028;-75
2023/01/08 10:31:15;;;;;;;31.30;18.67;;;;;;;5.32;100.00;100037.06;5045132;57;1142907;-68
2023/01/08 10:36:26;;;;;;;45.88;25.65;;;;;;;5.35;100.00;100030.78;4965160;57;1141062;-71
2023/01/08 10:41:31;;;;;;;32.43;20.03;;;;;;;5.42;100.00;100026.81;4982824;57;1142849;-72
2023/01/08 10:46:47;;;;;;;34.03;22.27;;;;;;;5.48;100.00;100011.54;4967924;56;1142995;-72
2023/01/08 10:51:55;;;;;;;31.75;18.57;;;;;;;5.59;100.00;100022.63;4962975;57;1142930;-74
2023/01/08 10:57:01;;;;;;;36.20;22.03;;;;;;;5.64;100.00;100029.75;4982807;57;1140861;-72
2023/01/08 11:02:11;;;;;;;34.13;19.80;;;;;;;5.72;100.00;100016.95;4962993;57;1142947;-70
2023/01/08 11:07:20;;;;;;;34.00;18.83;;;;;;;5.79;100.00;100000.35;4961217;58;1142967;-76
2023/01/08 11:12:40;;;;;;;36.42;20.85;;;;;;;5.88;100.00;100001.91;4964893;57;1143207;-69
2023/01/08 11:17:47;;;;;;;34.60;19.87;;;;;;;6.03;100.00;99990.02;5065320;56;1143882;-73
2023/01/08 11:22:52;;;;;;;37.93;22.77;;;;;;;6.06;100.00;99978.84;5060299;56;1140774;-73
2023/01/08 11:27:59;;;;;;;37.65;22.30;;;;;;;6.10;100.00;99988.68;5041088;55;1138698;-73
2023/01/08 11:33:09;;;;;;;41.07;24.77;;;;;;;6.20;100.00;99964.31;5089174;56;1140965;-73
2023/01/08 11:38:15;;;;;;;48.63;28.90;;;;;;;6.38;100.00;99968.78;5085126;56;1141247;-70
2023/01/08 11:43:40;;;;;;;103.38;50.88;;;;;;;6.51;100.00;99962.20;5074939;56;1140956;-71
2023/01/08 11:49:02;;;;;;;100.90;52.10;;;;;;;6.66;100.00;99951.92;5040942;57;1142978;-70
2023/01/08 11:54:45;;;;;;;186.17;85.57;;;;;;;6.78;100.00;99948.42;5036258;56;1142814;-72
2023/01/08 12:00:15;;;;;;;115.20;51.42;;;;;;;6.86;100.00;99959.72;5037721;55;1143040;-71
2023/01/08 12:05:49;;;;;;;78.70;37.90;;;;;;;6.96;100.00;99951.06;5037069;56;1142876;-74
2023/01/08 12:11:16;;;;;;;;;;;;;;;7.02;100.00;99940.12;5041175;56;1141058;-74
2023/01/08 12:16:47;;;;;;;65.67;35.05;;;;;;;6.92;100.00;99926.41;5083490;56;974424;-66
2023/01/08 12:22:03;;;;;;;51.55;29.10;;;;;;;6.85;100.00;99931.76;5118349;55;1138764;-70
2023/01/08 12:27:32;;;;;;;60.97;28.60;;;;;;;6.80;100.00;99922.03;5098940;56;1140858;-73
2023/01/08 12:32:49;;;;;;;56.93;29.50;;;;;;;6.79;100.00;99917.25;5080606;56;1140942;-72
2023/01/08 12:38:15;;;;;;;67.50;30.87;;;;;;;6.85;100.00;99916.83;5020194;56;1140936;-76
2023/01/08 12:43:34;;;;;;;48.07;26.07;;;;;;;6.86;100.00;99913.25;5030262;56;1141016;-70
2023/01/08 12:48:40;;;;;;;56.43;31.13;;;;;;;6.79;100.00;99905.42;5012709;57;1140813;-73
2023/01/08 12:54:37;;;;;;;76.63;41.43;;;;;;;6.73;100.00;99901.07;5060199;55;1140953;-71
2023/01/08 13:00:10;;;;;;;38.10;23.13;;;;;;;6.72;100.00;99903.36;5122506;55;1141195;-71
2023/01/08 13:05:24;;;;;;;50.00;27.20;;;;;;;6.73;100.00;99895.81;5122820;55;1140893;-69
2023/01/08 13:10:39;;;;;;;74.13;40.10;;;;;;;6.73;100.00;99895.81;5089096;55;1140957;-72
2023/01/08 13:15:45;;;;;;;64.23;36.57;;;;;;;6.71;100.00;99898.58;5063493;55;1140927;-72
2023/01/08 13:21:03;;;;;;;112.77;51.67;;;;;;;6.72;100.00;99900.73;5005076;56;1140950;-73
2023/01/08 13:26:09;;;;;;;111.00;38.50;;;;;;;6.73;100.00;99893.19;5068592;55;1142934;-69
2023/01/08 13:31:26;;;;;;;94.87;35.20;;;;;;;6.74;100.00;99889.14;5099509;56;1143067;-68
2023/01/08 13:36:32;;;;;;;69.90;26.20;;;;;;;6.73;100.00;99882.67;4982328;57;1141013;-71
2023/01/08 13:41:57;;;;;;;116.37;37.67;;;;;;;6.69;100.00;99880.77;4962814;57;1140792;-69
2023/01/08 13:47:06;;;;;;;452.17;161.07;;;;;;;6.68;100.00;99875.14;5063210;55;1143003;-71
2023/01/08 13:52:44;;;;;;;92.60;31.83;;;;;;;6.69;100.00;99868.94;5117210;55;1145054;-71
2023/01/08 13:57:56;;;;;;;54.03;25.70;;;;;;;6.72;100.00;99862.63;5100005;56;1140943;-75
2023/01/08 14:03:02;;;;;;;66.50;26.40;;;;;;;6.71;100.00;99860.48;5099820;56;1140934;-67
2023/01/08 14:08:12;;;;;;;63.30;29.00;;;;;;;6.69;100.00;99861.06;5119900;56;1140683;-67
2023/01/08 14:13:22;;;;;;;77.63;31.13;;;;;;;6.68;100.00;99854.97;5098717;56;1140999;-70
2023/01/08 14:18:29;;;;;;;215.66;95.42;;;;;;;6.71;100.00;99853.91;5099604;56;1141062;-68
2023/01/08 14:23:42;;;;;;;43.30;22.90;;;;;;;6.73;100.00;99852.45;5128043;56;1142981;-71
2023/01/08 14:28:55;;;;;;;36.93;22.65;;;;;;;6.75;100.00;99859.76;5089049;56;1141042;-65
2023/01/08 14:34:01;;;;;;;52.10;24.97;;;;;;;6.76;100.00;99867.53;5104068;55;1141071;-73
2023/01/08 14:39:13;;;;;;;53.07;25.87;;;;;;;6.74;100.00;99863.33;5118570;56;1140796;-75
2023/01/08 14:44:19;;;;;;;39.90;22.20;;;;;;;6.73;100.00;99851.14;5119648;56;1140763;-74
2023/01/08 14:49:42;;;;;;;107.90;46.00;;;;;;;6.72;100.00;99841.61;5126486;56;1141011;-70
2023/01/08 14:54:44;;;;;;;97.73;43.97;;;;;;;6.70;100.00;99839.93;5145109;56;1143024;-68
2023/01/08 14:59:58;;;;;;;303.80;106.33;;;;;;;6.72;100.00;99823.22;5069272;56;1140905;-78
2023/01/08 15:05:14;;;;;;;256.87;85.03;;;;;;;6.74;100.00;99823.91;5097988;56;1144933;-73
2023/01/08 15:10:35;;;;;;;173.37;63.73;;;;;;;6.73;100.00;99823.55;5067175;56;1143102;-73
2023/01/08 15:15:45;;;;;;;180.97;62.57;;;;;;;6.68;100.00;99815.55;5117507;56;1140820;-68
2023/01/08 15:20:53;;;;;;;114.28;44.67;;;;;;;6.64;100.00;99825.91;5005300;56;1142830;-71
2023/01/08 15:25:59;;;;;;;270.23;100.80;;;;;;;6.63;100.00;99816.34;4961889;57;1143001;-71
2023/01/08 15:31:06;;;;;;;193.95;87.08;;;;;;;6.63;100.00;99820.29;4980816;56;1145196;-71
2023/01/08 15:36:13;;;;;;;180.97;74.93;;;;;;;6.64;100.00;99822.44;4961604;56;1143070;-71
2023/01/08 15:46:46;;;;;;;242.80;94.83;;;;;;;6.66;100.00;99828.43;5092212;55;1143167;-71
2023/01/08 15:51:54;;;;;;;120.30;59.73;;;;;;;6.63;100.00;99837.37;5128520;56;1142904;-77
2023/01/08 15:57:00;;;;;;;137.15;65.78;;;;;;;6.60;100.00;99803.42;5108243;56;1142905;-71
2023/01/08 16:02:12;;;;;;;69.40;31.10;;;;;;;6.61;100.00;99835.32;5073492;56;1142915;-70
2023/01/08 16:07:17;;;;;;;64.10;28.27;;;;;;;6.62;100.00;99808.58;5108521;55;1141060;-76
2023/01/08 16:12:23;;;;;;;51.73;25.23;;;;;;;6.64;100.00;99820.66;5061813;56;1141032;-71
2023/01/08 16:17:33;;;;;;;401.17;146.43;;;;;;;6.66;100.00;99802.99;5012307;56;1141052;-71
2023/01/08 16:22:40;;;;;;;63.87;29.17;;;;;;;6.63;100.00;99787.92;5027569;57;1145030;-69
2023/01/08 16:27:46;;;;;;;50.87;23.40;;;;;;;6.58;100.00;99784.30;5055244;57;1140960;-68
2023/01/08 16:32:53;;;;;;;58.57;25.20;;;;;;;6.57;100.00;99782.63;5060543;56;1145319;-72
2023/01/08 16:37:59;;;;;;;51.60;26.57;;;;;;;6.58;100.00;99770.33;5115017;56;1140798;-70
2023/01/08 16:43:04;;;;;;;200.35;64.53;;;;;;;6.55;100.00;99754.81;5141383;56;1141027;-74
2023/01/08 16:48:10;;;;;;;62.47;28.43;;;;;;;6.46;100.00;99756.31;5087658;55;1142930;-72
2023/01/08 16:53:17;;;;;;;76.93;35.47;;;;;;;6.42;100.00;99770.60;5034991;57;1140845;-74
2023/01/08 16:58:23;;;;;;;57.75;29.92;;;;;;;6.41;100.00;99779.94;5045452;55;1140880;-70
2023/01/08 17:03:29;;;;;;;72.40;33.93;;;;;;;6.41;100.00;99788.66;5141887;56;1140729;-71
2023/01/08 17:08:38;;;;;;;107.13;52.73;;;;;;;6.37;100.00;99795.06;5122230;55;1140778;-73
2023/01/08 17:13:44;;;;;;;157.87;59.27;;;;;;;6.31;100.00;99792.39;5121902;55;1142874;-73
2023/01/08 17:18:50;;;;;;;58.33;28.73;;;;;;;6.29;100.00;99788.20;5150312;55;1143075;-73
2023/01/08 17:23:56;;;;;;;79.53;37.27;;;;;;;6.29;100.00;99786.41;5119989;55;1140901;-71
2023/01/08 17:29:01;;;;;;;75.83;34.33;;;;;;;6.25;100.00;99791.54;5108526;55;1141091;-75
2023/01/08 17:34:12;;;;;;;64.27;29.73;;;;;;;6.24;100.00;99779.83;5134756;56;1141038;-73
2023/01/08 17:39:18;;;;;;;43.83;23.90;;;;;;;6.23;100.00;99771.11;5122029;55;1140882;-72
2023/01/08 17:44:25;;;;;;;39.53;21.75;;;;;;;6.23;100.00;99756.67;5115126;55;1140791;-75
2023/01/08 17:49:30;;;;;;;62.70;32.23;;;;;;;6.23;100.00;99768.95;5146040;55;1140932;-74
2023/01/08 17:54:36;;;;;;;62.87;34.90;;;;;;;6.22;100.00;99764.18;5131250;55;1141022;-71
2023/01/08 17:59:42;;;;;;;63.63;35.30;;;;;;;6.21;100.00;99778.73;5131823;55;1138808;-67
2023/01/08 18:04:48;;;;;;;132.67;58.73;;;;;;;6.20;100.00;99783.61;5151066;55;1140979;-71
2023/01/08 18:09:56;;;;;;;83.73;41.97;;;;;;;6.22;100.00;99771.22;5130954;55;1150603;-76
2023/01/08 18:15:01;;;;;;;65.57;33.97;;;;;;;6.29;100.00;99758.00;5103752;55;1140843;-72
2023/01/08 18:20:09;;;;;;;76.87;35.68;;;;;;;6.31;100.00;99762.67;5067273;56;1140857;-78
2023/01/08 18:25:16;;;;;;;54.60;29.27;;;;;;;6.31;100.00;99786.30;5049071;56;1138767;-72
2023/01/08 18:30:22;;;;;;;79.70;37.93;;;;;;;6.29;100.00;99784.25;5052318;55;1140920;-76
2023/01/08 18:35:28;;;;;;;137.13;69.20;;;;;;;6.29;100.00;99782.95;5128367;55;1140826;-77
2023/01/08 18:40:33;;;;;;;78.17;46.13;;;;;;;6.33;100.00;99769.97;5108217;55;1142963;-68
2023/01/08 18:45:40;;;;;;;122.57;72.20;;;;;;;6.32;100.00;99763.88;5113622;55;1140802;-75
2023/01/08 18:50:46;;;;;;;50.50;24.67;;;;;;;6.32;100.00;99757.78;5140581;55;1143085;-75
2023/01/08 18:55:52;;;;;;;56.97;28.67;;;;;;;6.32;100.00;99752.05;5114978;55;1141024;-72
2023/01/08 19:01:03;;;;;;;49.63;27.20;;;;;;;6.34;100.00;99753.27;5118403;55;1140917;-77
2023/01/08 19:06:14;;;;;;;59.67;30.05;;;;;;;6.33;100.00;99755.05;5157945;55;1140843;-77
2023/01/08 19:11:20;;;;;;;58.87;28.63;;;;;;;6.31;100.00;99741.19;5124546;55;1140774;-77
2023/01/08 19:16:27;;;;;;;46.40;22.95;;;;;;;6.28;100.00;99739.25;5119703;55;1140843;-77
2023/01/08 19:21:32;;;;;;;108.90;41.03;;;;;;;6.29;100.00;99745.70;5144825;55;1140834;-71
2023/01/08 19:26:39;;;;;;;43.23;23.83;;;;;;;6.30;100.00;99748.70;5117652;55;1143087;-74
2023/01/08 19:31:45;;;;;;;75.03;36.97;;;;;;;6.31;100.00;99750.85;5119211;55;1140917;-74
2023/01/08 19:36:52;;;;;;;48.10;25.17;;;;;;;6.28;100.00;99751.06;5154233;55;1138667;-75
2023/01/08 19:47:22;;;;;;;;;;;;;;;6.27;100.00;99744.98;5128697;55;1140967;-77
2023/01/08 19:52:28;;;;;;;54.03;27.20;;;;;;;6.25;100.00;99725.89;5136848;55;974032;-71
2023/01/08 19:57:34;;;;;;;44.60;24.77;;;;;;;6.27;100.00;99738.88;5142944;55;1138730;-71
2023/01/08 20:02:40;;;;;;;47.47;25.40;;;;;;;6.25;100.00;99740.34;5123259;55;1140924;-71
2023/01/08 20:07:47;;;;;;;48.33;25.17;;;;;;;6.26;100.00;99731.98;5184573;55;1140933;-72
2023/01/08 20:12:53;;;;;;;53.63;27.73;;;;;;;6.26;100.00;99713.09;5201242;55;1140841;-69
2023/01/08 20:17:59;;;;;;;55.00;30.72;;;;;;;6.25;100.00;99704.05;5101834;55;1140897;-77
2023/01/08 20:23:05;;;;;;;41.57;23.77;;;;;;;6.21;100.00;99697.34;5098726;56;1138717;-73
2023/01/08 20:28:12;;;;;;;67.63;33.33;;;;;;;6.17;100.00;99692.77;5126913;55;1141043;-76
2023/01/08 20:33:18;;;;;;;67.90;33.53;;;;;;;6.13;100.00;99678.66;5128840;55;1141070;-71
2023/01/08 20:38:24;;;;;;;53.43;28.23;;;;;;;6.14;100.00;99681.66;5144540;55;1141048;-74
2023/01/08 20:43:31;;;;;;;54.43;28.40;;;;;;;6.15;100.00;99671.04;5136906;55;1140840;-71
2023/01/08 20:48:37;;;;;;;59.57;29.30;;;;;;;6.16;100.00;99667.47;5188537;55;1138801;-74
2023/01/08 20:53:43;;;;;;;50.03;26.03;;;;;;;6.09;100.00;99654.44;5188248;55;1138593;-69
2023/01/08 20:58:50;;;;;;;43.30;22.43;;;;;;;6.04;100.00;99644.74;5171040;55;1140918;-75
2023/01/08 21:03:57;;;;;;;44.73;22.03;;;;;;;6.00;100.00;99635.41;5188733;55;1140973;-68
2023/01/08 21:09:09;;;;;;;44.73;23.67;;;;;;;5.98;100.00;99632.05;5187920;55;1140893;-74
2023/01/08 21:14:15;;;;;;;52.60;27.50;;;;;;;5.96;100.00;99630.84;5188220;55;1141060;-71
2023/01/08 21:19:21;;;;;;;42.47;24.00;;;;;;;5.93;100.00;99626.32;5195988;55;1140838;-71
2023/01/08 21:24:27;;;;;;;55.40;27.50;;;;;;;5.88;100.00;99612.21;5141469;55;1138790;-69
2023/01/08 21:29:32;;;;;;;48.73;25.07;;;;;;;5.86;100.00;99612.77;5157372;55;1140925;-75
2023/01/08 21:34:38;;;;;;;42.40;23.03;;;;;;;5.87;100.00;99608.35;5111418;55;1141157;-71
2023/01/08 21:39:44;;;;;;;56.37;26.90;;;;;;;5.88;100.00;99608.72;5125735;56;1140974;-73
2023/01/08 21:50:15;;;;;;;49.18;26.93;;;;;;;5.89;100.00;99590.27;5044928;57;1141005;-72
2023/01/08 21:55:21;;;;;;;43.13;22.77;;;;;;;5.78;100.00;99591.98;5057172;57;1138749;-69
2023/01/08 22:00:27;;;;;;;56.60;27.57;;;;;;;5.78;100.00;99591.98;5055698;56;1140953;-73
2023/01/08 22:05:33;;;;;;;63.57;31.50;;;;;;;5.76;100.00;99594.71;5074636;55;1140981;-71
2023/01/08 22:10:41;;;;;;;51.30;25.50;;;;;;;5.75;100.00;99600.91;5113733;55;1140968;-72
2023/01/08 22:15:47;;;;;;;49.43;24.03;;;;;;;5.72;100.00;99588.00;5045739;56;1138787;-73
2023/01/08 22:21:02;;;;;;;38.02;22.65;;;;;;;5.63;100.00;99565.07;5084102;55;1138838;-71
2023/01/08 22:26:11;;;;;;;79.40;32.20;;;;;;;5.58;100.00;99560.63;5118594;56;1140920;-67
2023/01/08 22:31:17;;;;;;;79.30;35.47;;;;;;;5.53;100.00;99574.06;5098497;56;1140800;-71
2023/01/08 22:36:23;;;;;;;45.07;22.40;;;;;;;5.54;100.00;99570.96;5038075;56;1140999;-74
2023/01/08 22:41:29;;;;;;;54.47;28.43;;;;;;;5.55;100.00;99562.98;5098927;56;1141007;-69
2023/01/08 22:46:35;;;;;;;47.90;26.43;;;;;;;5.55;100.00;99555.59;5033642;56;1138822;-70
2023/01/08 22:51:44;;;;;;;57.08;28.30;;;;;;;5.55;100.00;99564.77;5016545;55;1138796;-74
2023/01/08 22:56:50;;;;;;;53.80;28.30;;;;;;;5.56;100.00;99573.84;5036148;56;1138615;-69
2023/01/08 23:01:56;;;;;;;44.20;23.15;;;;;;;5.55;100.00;99555.12;5018218;56;1140740;-69
2023/01/08 23:07:02;;;;;;;41.43;23.43;;;;;;;5.56;100.00;99525.80;5047206;55;1140978;-76
2023/01/08 23:12:08;;;;;;;62.88;29.92;;;;;;;5.57;100.00;99532.72;5119933;56;1140989;-68
2023/01/08 23:17:14;;;;;;;58.52;27.82;;;;;;;5.57;100.00;99528.78;5097860;56;1261302;-71